createdAt,value
2019-05-07T00:00:57.182Z,13.17
2019-05-07T00:03:25.712Z,11.80
2019-05-07T00:05:54.156Z,16.30
2019-05-07T00:08:23.002Z,13.05
2019-05-07T00:10:52.914Z,14.60
2019-05-07T00:13:22.724Z,10.47
2019-05-07T00:15:52.768Z,11.93
2019-05-07T00:18:22.977Z,15.80
2019-05-07T00:20:52.944Z,14.20
2019-05-07T00:23:23.201Z,17.00
2019-05-07T00:25:52.919Z,13.10
2019-05-07T00:28:23.014Z,20.27
2019-05-07T00:30:52.171Z,17.47
2019-05-07T00:33:22.738Z,17.80
2019-05-07T00:35:55.439Z,17.73
2019-05-07T00:38:25.486Z,17.23
2019-05-07T00:40:58.270Z,18.33
2019-05-07T00:43:28.262Z,18.00
2019-05-07T00:46:04.062Z,20.60
2019-05-07T00:48:33.097Z,23.13
2019-05-07T00:51:22.560Z,25.60
2019-05-07T00:53:52.144Z,21.40
2019-05-07T00:56:22.475Z,18.27
2019-05-07T00:58:52.759Z,16.02
2019-05-07T01:01:23.105Z,18.98
2019-05-07T01:03:53.408Z,21.97
2019-05-07T01:06:22.790Z,20.17
2019-05-07T01:08:52.541Z,22.73
2019-05-07T01:11:22.681Z,20.53
2019-05-07T01:13:52.142Z,19.17
2019-05-07T01:16:22.212Z,20.33
2019-05-07T01:18:50.857Z,17.13
2019-05-07T01:21:19.266Z,20.10
2019-05-07T01:23:47.703Z,21.30
2019-05-07T01:26:17.776Z,19.53
2019-05-07T01:29:02.937Z,18.07
2019-05-07T01:31:34.658Z,18.37
2019-05-07T01:34:07.754Z,22.07
2019-05-07T01:36:36.223Z,24.57
2019-05-07T01:39:06.116Z,24.67
2019-05-07T01:41:34.537Z,22.27
2019-05-07T01:44:03.213Z,26.40
2019-05-07T01:46:32.424Z,23.40
2019-05-07T01:49:03.083Z,20.23
2019-05-07T01:51:32.671Z,17.93
2019-05-07T01:54:02.257Z,19.90
2019-05-07T01:56:33.825Z,22.00
2019-05-07T01:59:02.541Z,22.67
2019-05-07T02:01:35.456Z,24.80
2019-05-07T02:04:05.805Z,25.57
2019-05-07T02:06:35.896Z,17.23
2019-05-07T02:09:10.380Z,20.87
2019-05-07T02:11:42.909Z,24.10
2019-05-07T02:14:13.492Z,22.48
2019-05-07T02:16:41.908Z,21.33
2019-05-07T02:19:12.511Z,24.30
2019-05-07T02:21:42.311Z,25.03
2019-05-07T02:24:12.574Z,25.82
2019-05-07T02:26:42.728Z,22.50
2019-05-07T02:29:12.212Z,16.30
2019-05-07T02:31:43.822Z,21.13
2019-05-07T02:34:13.794Z,22.67
2019-05-07T02:36:43.328Z,23.57
2019-05-07T02:39:16.856Z,24.27
2019-05-07T02:41:45.279Z,20.95
2019-05-07T02:44:14.299Z,22.03
2019-05-07T02:47:03.753Z,24.53
2019-05-07T02:49:38.575Z,24.77
2019-05-07T02:52:08.631Z,23.83
2019-05-07T02:54:56.989Z,25.43
2019-05-07T02:57:26.810Z,25.83
2019-05-07T02:59:55.225Z,24.37
2019-05-07T03:02:24.288Z,26.83
2019-05-07T03:04:53.388Z,27.07
2019-05-07T03:07:24.216Z,21.30
2019-05-07T03:09:53.838Z,22.07
2019-05-07T03:12:23.717Z,27.90
2019-05-07T03:14:53.679Z,24.57
2019-05-07T03:17:24.723Z,26.60
2019-05-07T03:19:54.043Z,23.20
2019-05-07T03:22:23.394Z,24.77
2019-05-07T03:24:53.804Z,25.70
2019-05-07T03:27:23.849Z,23.03
2019-05-07T03:29:54.032Z,29.07
2019-05-07T03:32:40.405Z,24.50
2019-05-07T03:35:27.817Z,25.00
2019-05-07T03:37:57.071Z,24.87
2019-05-07T03:40:25.513Z,24.70
2019-05-07T03:42:53.961Z,25.47
2019-05-07T03:45:36.086Z,25.97
2019-05-07T03:48:13.613Z,22.57
2019-05-07T03:50:43.141Z,22.23
2019-05-07T03:53:14.234Z,26.23
2019-05-07T03:55:44.526Z,23.53
2019-05-07T03:58:14.640Z,24.47
2019-05-07T04:00:44.611Z,29.60
2019-05-07T04:03:16.464Z,26.25
2019-05-07T04:05:43.635Z,26.47
2019-05-07T04:08:13.189Z,24.60
2019-05-07T04:10:44.270Z,26.53
2019-05-07T04:13:13.353Z,27.00
2019-05-07T04:15:44.005Z,26.20
2019-05-07T04:18:13.178Z,28.47
2019-05-07T04:20:43.628Z,28.40
2019-05-07T04:23:13.872Z,29.97
2019-05-07T04:25:46.898Z,27.32
2019-05-07T04:28:19.198Z,27.10
2019-05-07T04:30:47.707Z,25.97
2019-05-07T04:33:17.780Z,28.75
2019-05-07T04:35:53.870Z,25.50
2019-05-07T04:38:23.885Z,30.55
2019-05-07T04:40:53.791Z,25.80
2019-05-07T04:43:23.366Z,27.03
2019-05-07T04:45:53.682Z,26.90
2019-05-07T04:48:23.372Z,26.43
2019-05-07T04:50:54.320Z,27.93
2019-05-07T04:53:23.835Z,26.00
2019-05-07T04:55:53.558Z,25.43
2019-05-07T04:58:23.608Z,27.43
2019-05-07T05:00:53.814Z,26.63
2019-05-07T05:03:24.242Z,28.27
2019-05-07T05:05:53.406Z,24.33
2019-05-07T05:08:23.312Z,30.82
2019-05-07T05:10:53.754Z,29.03
2019-05-07T05:13:23.670Z,28.83
2019-05-07T05:15:52.863Z,27.03
2019-05-07T05:18:22.021Z,28.53
2019-05-07T05:20:55.183Z,28.83
2019-05-07T05:23:25.277Z,28.43
2019-05-07T05:25:53.705Z,29.97
2019-05-07T05:28:22.188Z,27.97
2019-05-07T05:30:55.308Z,29.60
2019-05-07T05:33:23.729Z,29.45
2019-05-07T05:35:52.651Z,29.73
2019-05-07T05:38:22.151Z,31.80
2019-05-07T05:40:52.085Z,24.57
2019-05-07T05:43:32.064Z,30.63
2019-05-07T05:46:02.815Z,31.00
2019-05-07T05:48:33.404Z,35.87
2019-05-07T05:51:08.975Z,33.93
2019-05-07T05:53:43.397Z,35.40
2019-05-07T05:56:28.900Z,31.85
2019-05-07T05:59:08.299Z,34.97
2019-05-07T06:01:42.692Z,33.73
2019-05-07T06:04:15.999Z,34.10
2019-05-07T06:07:01.166Z,36.77
2019-05-07T06:09:24.071Z,34.78
2019-05-07T06:11:54.130Z,35.60
2019-05-07T06:14:39.256Z,36.57
2019-05-07T06:17:12.979Z,37.60
2019-05-07T06:19:46.254Z,39.50
2019-05-07T06:22:16.827Z,38.33
2019-05-07T06:24:52.022Z,40.40
2019-05-07T06:27:20.259Z,42.40
2019-05-07T06:29:48.777Z,38.65
2019-05-07T06:32:19.070Z,41.67
2019-05-07T06:34:47.494Z,38.40
2019-05-07T06:37:16.007Z,38.80
2019-05-07T06:39:55.122Z,34.67
2019-05-07T06:45:23.290Z,38.02
2019-05-07T06:47:52.083Z,39.37
2019-05-07T06:50:22.103Z,35.25
2019-05-07T06:52:51.879Z,39.03
2019-05-07T06:55:22.645Z,32.27
2019-05-07T06:57:52.854Z,35.03
2019-05-07T07:00:24.849Z,30.53
2019-05-07T07:03:04.273Z,28.80
2019-05-07T07:05:34.379Z,32.67
2019-05-07T07:08:20.340Z,32.20
2019-05-07T07:11:06.669Z,32.37
2019-05-07T07:13:36.658Z,33.08
2019-05-07T07:16:05.100Z,34.70
2019-05-07T07:18:48.192Z,30.67
2019-05-07T07:21:03.944Z,34.40
2019-05-07T07:23:32.653Z,32.77
2019-05-07T07:26:03.105Z,30.83
2019-05-07T07:28:32.675Z,33.80
2019-05-07T07:31:19.376Z,31.63
2019-05-07T07:33:49.476Z,29.10
2019-05-07T07:36:19.146Z,30.57
2019-05-07T07:38:47.568Z,30.30
2019-05-07T07:41:32.902Z,27.82
2019-05-07T07:44:02.064Z,25.67
2019-05-07T07:46:32.793Z,27.23
2019-05-07T07:49:08.003Z,30.83
2019-05-07T07:51:40.486Z,25.50
2019-05-07T07:54:02.475Z,26.33
2019-05-07T07:56:48.370Z,26.80
2019-05-07T07:59:22.142Z,29.33
2019-05-07T08:02:04.675Z,27.03
2019-05-07T08:04:33.105Z,26.03
2019-05-07T08:07:04.496Z,27.10
2019-05-07T08:09:34.371Z,21.27
2019-05-07T08:12:04.818Z,23.23
2019-05-07T08:14:33.964Z,22.60
2019-05-07T08:17:22.516Z,22.97
2019-05-07T08:19:52.039Z,22.27
2019-05-07T08:22:22.595Z,22.52
2019-05-07T08:24:55.394Z,20.33
2019-05-07T08:27:25.837Z,22.05
2019-05-07T08:29:54.645Z,21.13
2019-05-07T08:32:36.983Z,20.50
2019-05-07T08:35:33.125Z,19.97
2019-05-07T08:41:02.741Z,25.60
2019-05-07T08:43:32.213Z,19.57
2019-05-07T08:46:18.768Z,21.17
2019-05-07T08:48:48.852Z,19.37
2019-05-07T08:51:17.272Z,18.50
2019-05-07T08:53:47.341Z,18.33
2019-05-07T08:56:15.842Z,21.48
2019-05-07T08:58:44.429Z,18.57
2019-05-07T09:01:12.860Z,19.03
2019-05-07T09:03:44.315Z,18.40
2019-05-07T09:06:13.948Z,16.30
2019-05-07T09:08:43.682Z,16.87
2019-05-07T09:11:13.845Z,15.20
2019-05-07T09:13:42.264Z,18.77
2019-05-07T09:16:13.010Z,17.02
2019-05-07T09:18:42.217Z,15.10
2019-05-07T09:21:12.553Z,17.10
2019-05-07T09:23:42.420Z,18.30
2019-05-07T09:26:13.133Z,18.37
2019-05-07T09:28:47.723Z,15.97
2019-05-07T09:31:17.795Z,16.05
2019-05-07T09:33:47.889Z,16.77
2019-05-07T09:36:17.947Z,21.25
2019-05-07T09:38:56.935Z,17.90
2019-05-07T09:41:27.467Z,18.23
2019-05-07T09:43:57.232Z,17.83
2019-05-07T09:46:25.915Z,16.00
2019-05-07T09:48:54.365Z,19.33
2019-05-07T09:51:22.844Z,15.08
2019-05-07T09:53:51.972Z,15.30
2019-05-07T09:56:23.283Z,19.33
2019-05-07T09:58:53.051Z,14.13
2019-05-07T10:01:23.568Z,17.40
2019-05-07T10:03:51.894Z,17.63
2019-05-07T10:06:20.445Z,16.47
2019-05-07T10:08:48.893Z,16.30
2019-05-07T10:11:22.529Z,16.82
2019-05-07T10:13:55.647Z,17.30
2019-05-07T10:16:28.161Z,12.70
2019-05-07T10:18:56.607Z,14.87
2019-05-07T10:21:25.171Z,16.77
2019-05-07T10:23:53.847Z,11.87
2019-05-07T10:26:22.631Z,13.13
2019-05-07T10:28:52.897Z,13.47
2019-05-07T10:31:22.838Z,11.43
2019-05-07T10:33:52.409Z,11.73
2019-05-07T10:36:22.824Z,12.70
2019-05-07T10:38:52.030Z,13.40
2019-05-07T10:41:22.352Z,14.55
2019-05-07T10:43:51.960Z,12.63
2019-05-07T10:46:32.474Z,16.27
2019-05-07T10:49:12.315Z,15.70
2019-05-07T10:51:43.153Z,15.77
2019-05-07T10:54:12.618Z,16.67
2019-05-07T10:56:41.897Z,17.57
2019-05-07T10:59:12.386Z,16.77
2019-05-07T11:01:42.621Z,14.93
2019-05-07T11:04:12.810Z,14.60
2019-05-07T11:06:41.829Z,19.80
2019-05-07T11:09:10.395Z,15.17
2019-05-07T11:11:38.846Z,12.70
2019-05-07T11:14:07.366Z,11.13
2019-05-07T11:16:40.526Z,11.60
2019-05-07T11:19:08.997Z,14.77
2019-05-07T11:21:37.442Z,9.83
2019-05-07T11:24:06.066Z,9.23
2019-05-07T11:26:34.495Z,11.73
2019-05-07T11:29:02.991Z,9.63
2019-05-07T11:31:33.102Z,11.27
2019-05-07T11:34:02.800Z,11.33
2019-05-07T11:36:32.085Z,12.67
2019-05-07T11:39:01.818Z,12.00
2019-05-07T11:41:32.165Z,11.97
2019-05-07T11:44:02.328Z,13.17
2019-05-07T11:47:08.961Z,15.63
2019-05-07T11:49:56.678Z,12.13
2019-05-07T11:52:26.751Z,10.47
2019-05-07T11:54:55.179Z,14.70
2019-05-07T11:57:23.636Z,12.85
2019-05-07T11:59:54.346Z,13.63
2019-05-07T12:02:22.622Z,11.68
2019-05-07T12:04:52.674Z,12.17
2019-05-07T12:07:22.345Z,14.77
2019-05-07T12:09:52.633Z,15.80
2019-05-07T12:12:22.226Z,17.90
2019-05-07T12:14:51.857Z,13.67
2019-05-07T12:17:22.372Z,13.25
2019-05-07T12:19:52.683Z,13.70
2019-05-07T12:22:39.793Z,11.75
2019-05-07T12:25:08.227Z,11.83
2019-05-07T12:27:36.638Z,13.43
2019-05-07T12:30:08.876Z,13.37
2019-05-07T12:32:38.947Z,12.17
2019-05-07T12:35:09.146Z,12.07
2019-05-07T12:37:37.634Z,11.63
2019-05-07T12:40:08.025Z,15.13
2019-05-07T12:42:36.755Z,15.03
2019-05-07T12:45:06.777Z,13.48
2019-05-07T12:47:35.231Z,14.33
2019-05-07T12:50:03.805Z,15.40
2019-05-07T12:52:33.862Z,13.53
2019-05-07T12:55:23.103Z,14.83
2019-05-07T12:57:51.958Z,14.43
2019-05-07T13:00:39.639Z,14.53
2019-05-07T13:03:12.807Z,14.80
2019-05-07T13:05:41.799Z,14.30
2019-05-07T13:08:12.235Z,14.70
2019-05-07T13:10:42.702Z,14.17
2019-05-07T13:13:12.289Z,12.85
2019-05-07T13:15:43.248Z,14.00
2019-05-07T13:18:12.726Z,13.50
2019-05-07T13:20:41.564Z,15.17
2019-05-07T13:23:11.851Z,13.93
2019-05-07T13:25:40.163Z,14.17
2019-05-07T13:28:08.690Z,14.90
2019-05-07T13:30:37.138Z,15.03
2019-05-07T13:33:05.753Z,12.83
2019-05-07T13:35:35.499Z,15.47
2019-05-07T13:38:06.329Z,14.13
2019-05-07T13:40:36.784Z,12.93
2019-05-07T13:43:07.855Z,15.37
2019-05-07T13:45:50.170Z,14.40
2019-05-07T13:48:22.555Z,16.20
2019-05-07T13:50:51.198Z,13.10
2019-05-07T13:53:19.774Z,14.10
2019-05-07T13:55:48.246Z,12.30
2019-05-07T13:58:16.848Z,15.67
2019-05-07T14:00:58.847Z,14.67
2019-05-07T14:03:27.351Z,16.83
2019-05-07T14:05:55.778Z,13.53
2019-05-07T14:08:25.654Z,13.43
2019-05-07T14:10:54.292Z,13.30
2019-05-07T14:13:22.714Z,13.13
2019-05-07T14:16:05.202Z,14.00
2019-05-07T14:18:34.358Z,14.83
2019-05-07T14:21:04.495Z,12.57
2019-05-07T14:23:33.223Z,16.50
2019-05-07T14:26:02.012Z,14.03
2019-05-07T14:28:32.498Z,11.03
2019-05-07T14:31:01.898Z,13.20
2019-05-07T14:33:38.318Z,12.47
2019-05-07T14:36:08.382Z,10.23
2019-05-07T14:38:42.619Z,11.43
2019-05-07T14:41:12.905Z,10.97
2019-05-07T14:43:48.780Z,12.03
2019-05-07T14:46:17.219Z,11.90
2019-05-07T14:48:45.931Z,9.50
2019-05-07T14:51:14.645Z,10.70
2019-05-07T14:53:43.364Z,7.00
2019-05-07T14:56:14.302Z,11.15
2019-05-07T14:58:43.517Z,8.60
2019-05-07T15:01:11.963Z,11.60
2019-05-07T15:03:42.250Z,8.77
2019-05-07T15:06:12.469Z,8.37
2019-05-07T15:08:42.963Z,8.73
2019-05-07T15:11:10.931Z,10.80
2019-05-07T15:13:39.401Z,13.10
2019-05-07T15:16:07.877Z,12.13
2019-05-07T15:18:43.758Z,13.17
2019-05-07T15:21:13.034Z,11.00
2019-05-07T15:23:42.467Z,10.53
2019-05-07T15:26:12.865Z,10.72
2019-05-07T15:28:43.074Z,12.70
2019-05-07T15:31:16.017Z,12.53
2019-05-07T15:33:44.419Z,12.47
2019-05-07T15:36:12.983Z,15.33
2019-05-07T15:38:42.896Z,10.63
2019-05-07T15:41:11.694Z,12.90
2019-05-07T15:43:43.243Z,10.88
2019-05-07T15:46:12.109Z,10.87
2019-05-07T15:48:42.008Z,10.07
2019-05-07T15:51:11.918Z,13.03
2019-05-07T15:53:42.711Z,14.03
2019-05-07T15:56:12.461Z,12.23
2019-05-07T15:58:42.582Z,11.33
2019-05-07T16:01:12.852Z,11.07
2019-05-07T16:03:46.130Z,13.40
2019-05-07T16:06:14.634Z,11.75
2019-05-07T16:08:50.726Z,13.40
2019-05-07T16:11:20.099Z,9.73
2019-05-07T16:14:05.510Z,10.53
2019-05-07T16:16:35.568Z,14.00
2019-05-07T16:19:23.343Z,16.70
2019-05-07T16:21:51.777Z,10.43
2019-05-07T16:24:22.439Z,12.05
2019-05-07T16:26:52.341Z,12.37
2019-05-07T16:29:22.474Z,12.50
2019-05-07T16:31:52.164Z,12.73
2019-05-07T16:34:22.026Z,12.47
2019-05-07T16:36:50.967Z,12.03
2019-05-07T16:39:19.398Z,13.20
2019-05-07T16:41:47.843Z,13.87
2019-05-07T16:44:16.307Z,11.13
2019-05-07T16:46:44.726Z,12.37
2019-05-07T16:49:13.170Z,10.50
2019-05-07T16:51:44.594Z,9.80
2019-05-07T16:54:12.296Z,10.20
2019-05-07T16:56:42.836Z,12.63
2019-05-07T16:59:12.607Z,11.23
2019-05-07T17:01:42.967Z,12.50
2019-05-07T17:04:12.172Z,13.97
2019-05-07T17:06:42.598Z,10.48
2019-05-07T17:09:13.452Z,13.10
2019-05-07T17:11:43.739Z,13.17
2019-05-07T17:14:12.963Z,14.07
2019-05-07T17:16:41.729Z,12.97
2019-05-07T17:19:11.859Z,13.68
2019-05-07T17:21:40.363Z,12.87
2019-05-07T17:24:08.804Z,12.53
2019-05-07T17:26:37.311Z,10.97
2019-05-07T17:29:06.111Z,14.27
2019-05-07T17:31:34.563Z,12.40
2019-05-07T17:34:03.196Z,11.80
2019-05-07T17:36:33.016Z,13.30
2019-05-07T17:39:02.770Z,13.77
2019-05-07T17:41:32.291Z,13.10
2019-05-07T17:44:02.683Z,14.40
2019-05-07T17:46:32.475Z,15.07
2019-05-07T17:49:02.493Z,16.43
2019-05-07T17:51:43.940Z,14.07
2019-05-07T17:54:13.602Z,14.87
2019-05-07T17:56:43.096Z,12.53
2019-05-07T17:59:12.360Z,13.18
2019-05-07T18:01:52.944Z,13.90
2019-05-07T18:04:23.897Z,11.87
2019-05-07T18:06:52.221Z,12.13
2019-05-07T18:09:22.588Z,11.97
2019-05-07T18:11:52.259Z,15.90
2019-05-07T18:14:22.898Z,14.47
2019-05-07T18:16:58.155Z,11.07
2019-05-07T18:19:28.265Z,12.73
2019-05-07T18:21:56.747Z,14.40
2019-05-07T18:24:25.570Z,12.10
2019-05-07T18:26:54.003Z,12.03
2019-05-07T18:29:22.610Z,12.70
2019-05-07T18:31:59.871Z,13.00
2019-05-07T18:34:31.918Z,12.87
2019-05-07T18:36:58.565Z,11.67
2019-05-07T18:39:27.298Z,9.30
2019-05-07T18:41:55.719Z,12.03
2019-05-07T18:44:24.214Z,10.85
2019-05-07T18:46:52.997Z,12.30
2019-05-07T18:49:21.569Z,13.72
2019-05-07T18:51:52.008Z,12.83
2019-05-07T18:54:27.771Z,11.47
2019-05-07T18:56:52.704Z,12.47
2019-05-07T18:59:22.218Z,11.00
2019-05-07T19:01:52.609Z,14.03
2019-05-07T19:04:21.920Z,15.32
2019-05-07T19:06:51.781Z,14.13
2019-05-07T19:09:22.286Z,14.20
2019-05-07T19:11:52.241Z,13.33
2019-05-07T19:14:22.755Z,15.03
2019-05-07T19:16:52.581Z,13.50
2019-05-07T19:19:22.131Z,15.43
2019-05-07T19:21:52.843Z,14.90
2019-05-07T19:24:23.065Z,18.00
2019-05-07T19:26:52.997Z,15.67
2019-05-07T19:29:23.318Z,12.83
2019-05-07T19:31:52.498Z,16.50
2019-05-07T19:34:22.019Z,12.75
2019-05-07T19:36:52.078Z,14.53
2019-05-07T19:39:23.174Z,17.57
2019-05-07T19:41:52.305Z,14.00
2019-05-07T19:44:21.073Z,15.60
2019-05-07T19:46:49.519Z,14.43
2019-05-07T19:49:23.595Z,15.43
2019-05-07T19:51:52.446Z,17.62
2019-05-07T19:54:22.835Z,16.60
2019-05-07T19:56:51.929Z,14.80
2019-05-07T19:59:22.251Z,16.27
2019-05-07T20:01:52.626Z,15.50
2019-05-07T20:04:21.067Z,15.80
2019-05-07T20:06:49.491Z,17.43
2019-05-07T20:09:19.660Z,19.63
2019-05-07T20:11:49.255Z,20.20
2019-05-07T20:14:17.686Z,19.77
2019-05-07T20:16:46.259Z,17.00
2019-05-07T20:19:14.679Z,15.05
2019-05-07T20:21:43.106Z,17.13
2019-05-07T20:24:12.466Z,20.17
2019-05-07T20:26:43.106Z,19.77
2019-05-07T20:29:12.311Z,17.77
2019-05-07T20:31:42.274Z,16.67
2019-05-07T20:34:13.043Z,15.85
2019-05-07T20:36:42.773Z,17.80
2019-05-07T20:39:12.754Z,17.87
2019-05-07T20:41:42.957Z,15.53
2019-05-07T20:44:12.086Z,14.98
2019-05-07T20:46:42.317Z,19.43
2019-05-07T20:49:12.892Z,18.57
2019-05-07T20:51:41.904Z,20.33
2019-05-07T20:54:17.855Z,18.00
2019-05-07T20:56:47.929Z,16.40
2019-05-07T20:59:16.346Z,16.33
2019-05-07T21:01:44.799Z,18.50
2019-05-07T21:04:13.223Z,19.65
2019-05-07T21:06:43.231Z,23.07
2019-05-07T21:09:12.600Z,17.50
2019-05-07T21:11:43.101Z,19.20
2019-05-07T21:14:12.066Z,16.95
2019-05-07T21:16:42.547Z,19.20
2019-05-07T21:19:12.753Z,19.93
2019-05-07T21:21:42.197Z,18.27
2019-05-07T21:24:13.005Z,19.02
2019-05-07T21:26:42.324Z,19.27
2019-05-07T21:29:13.509Z,18.62
2019-05-07T21:31:43.150Z,18.15
2019-05-07T21:34:12.387Z,18.93
2019-05-07T21:36:43.256Z,19.33
2019-05-07T21:39:12.928Z,18.93
2019-05-07T21:41:42.680Z,22.33
2019-05-07T21:44:11.415Z,19.80
2019-05-07T21:46:39.869Z,19.40
2019-05-07T21:49:12.001Z,20.13
2019-05-07T21:51:41.697Z,19.93
2019-05-07T21:54:12.201Z,17.70
2019-05-07T21:56:42.411Z,19.93
2019-05-07T21:59:12.688Z,22.60
2019-05-07T22:01:43.652Z,20.03
2019-05-07T22:04:12.731Z,22.13
2019-05-07T22:06:45.122Z,20.63
2019-05-07T22:09:12.850Z,22.32
2019-05-07T22:11:42.750Z,20.33
2019-05-07T22:14:12.900Z,18.93
2019-05-07T22:16:41.865Z,20.43
2019-05-07T22:19:12.100Z,20.27
2019-05-07T22:21:42.935Z,20.70
2019-05-07T22:24:14.681Z,24.70
2019-05-07T22:26:42.040Z,17.90
2019-05-07T22:29:12.595Z,21.67
2019-05-07T22:31:44.256Z,19.27
2019-05-07T22:34:26.730Z,21.12
2019-05-07T22:36:55.442Z,21.03
2019-05-07T22:39:23.868Z,19.83
2019-05-07T22:41:52.330Z,19.20
2019-05-07T22:44:23.857Z,22.53
2019-05-07T22:46:52.737Z,20.07
2019-05-07T22:49:22.927Z,21.43
2019-05-07T22:51:52.597Z,18.53
2019-05-07T22:54:22.585Z,25.72
2019-05-07T22:56:59.390Z,17.37
2019-05-07T22:59:27.802Z,18.97
2019-05-07T23:01:56.219Z,19.57
2019-05-07T23:04:24.744Z,19.30
2019-05-07T23:06:53.253Z,20.27
2019-05-07T23:09:22.348Z,22.00
2019-05-07T23:11:52.583Z,17.67
2019-05-07T23:14:22.634Z,17.20
2019-05-07T23:16:54.968Z,22.63
2019-05-07T23:19:22.059Z,19.37
2019-05-07T23:21:52.222Z,21.27
2019-05-07T23:24:22.648Z,23.67
2019-05-07T23:26:53.341Z,17.50
2019-05-07T23:29:22.501Z,19.97
2019-05-07T23:31:52.916Z,19.30
2019-05-07T23:34:22.138Z,19.37
2019-05-07T23:36:53.048Z,21.30
2019-05-07T23:39:22.711Z,16.55
2019-05-07T23:42:07.857Z,20.50
2019-05-07T23:44:36.308Z,21.13
2019-05-07T23:47:05.269Z,19.70
2019-05-07T23:49:33.706Z,22.20
2019-05-07T23:52:02.541Z,18.33
2019-05-07T23:54:31.892Z,17.50
2019-05-07T23:57:07.164Z,20.30
2019-05-07T23:59:32.713Z,19.37
